← Previous June 18, 2024 8:22 AM

FTUS41 KBGM 171520 AAA
TAFSYR
TAF AMD
KSYR 171520Z 1715/1812 21009KT P6SM SCT050 SCT250
     FM171700 23007KT P6SM FEW250=